Time;durP1;ratioP1;P1;durP2;ratioP2;P2;SDS_P1;SDS_P2;PMS_P1;PMS_P2;Temp;Humidity;BMP_temperature;BMP_pressure;BME280_temperature;BME280_humidity;BME280_pressure;Samples;Min_cycle;Max_cycle;Signal;HPM_P1;HPM_P2
2023/05/10 00:03:41;;;;;;;2.45;1.60;;;;;;;22.99;40.39;100570.50;41394537;28;20059;-86
2023/05/10 00:23:41;;;;;;;1.95;1.60;;;;;;;22.94;40.37;100552.41;41404868;28;20088;-84
2023/05/10 00:43:42;;;;;;;3.70;1.10;;;;;;;22.95;40.50;100551.44;41403982;28;20046;-86
2023/05/10 01:03:43;;;;;;;1.88;1.40;;;;;;;22.96;40.65;100541.69;41381933;28;20136;-86
2023/05/10 01:24:27;;;;;;;1.50;1.02;;;;;;;22.93;40.81;100534.03;41370182;28;20413;-82
2023/05/10 01:44:48;;;;;;;2.50;1.20;;;;;;;22.90;40.90;100524.56;41374509;28;20752;-84
2023/05/10 02:04:51;;;;;;;3.40;1.40;;;;;;;22.89;40.62;100516.75;41374892;28;20053;-81
2023/05/10 02:24:53;;;;;;;1.73;1.05;;;;;;;22.84;40.88;100496.88;41389597;28;20181;-82
2023/05/10 02:44:59;;;;;;;1.58;1.13;;;;;;;22.82;40.87;100503.25;41358314;28;20038;-85
2023/05/10 03:05:00;;;;;;;1.65;1.20;;;;;;;22.79;41.02;100512.25;41358665;28;20549;-87
2023/05/10 03:25:06;;;;;;;1.20;1.10;;;;;;;22.74;40.84;100498.59;41374130;28;20142;-84
2023/05/10 03:45:09;;;;;;;1.23;1.13;;;;;;;22.74;40.64;100497.75;41382621;28;20057;-79
2023/05/10 04:05:11;;;;;;;1.45;0.93;;;;;;;22.77;41.51;100510.72;41346627;28;20049;-77
2023/05/10 04:25:11;;;;;;;6.20;1.17;;;;;;;22.86;42.36;100508.16;41379108;28;20073;-82
2023/05/10 04:45:14;;;;;;;11.80;1.70;;;;;;;22.90;42.77;100513.16;41413385;28;20050;-83
2023/05/10 05:05:14;;;;;;;6.22;2.30;;;;;;;22.79;41.84;100511.41;41382895;28;20572;-85
2023/05/10 05:25:15;;;;;;;4.95;2.03;;;;;;;22.84;42.20;100523.28;41399198;28;20072;-86
2023/05/10 05:45:16;;;;;;;4.88;2.03;;;;;;;22.90;42.31;100532.50;41386918;28;20069;-87
2023/05/10 06:05:18;;;;;;;5.13;1.65;;;;;;;22.91;42.11;100541.25;41374481;28;20042;-90
2023/05/10 06:25:18;;;;;;;3.25;1.55;;;;;;;22.88;42.54;100554.72;41373904;28;20502;-81
2023/05/10 06:45:26;;;;;;;2.95;2.00;;;;;;;22.86;43.46;100566.25;41344467;28;20034;-87
2023/05/10 07:05:27;;;;;;;6.07;2.72;;;;;;;22.92;43.16;100543.75;41362825;28;20108;-87
2023/05/10 07:25:28;;;;;;;4.70;2.50;;;;;;;22.95;42.25;100545.28;41358317;28;20624;-87
2023/05/10 07:45:29;;;;;;;5.50;2.65;;;;;;;22.94;42.70;100533.91;41378970;28;20054;-84
2023/05/10 08:05:30;;;;;;;6.70;3.13;;;;;;;23.00;42.74;100538.69;41444726;28;20050;-87
2023/05/10 08:25:31;;;;;;;2.60;2.40;;;;;;;23.03;42.92;100542.88;41471710;28;20042;-88
2023/05/10 08:45:37;;;;;;;4.30;2.42;;;;;;;23.06;43.07;100539.97;41476226;28;20082;-89
2023/05/10 09:05:38;;;;;;;3.42;2.30;;;;;;;23.10;43.09;100535.28;41464160;28;20054;-88
2023/05/10 09:25:41;;;;;;;3.08;2.10;;;;;;;23.11;43.28;100526.41;41459718;28;20026;-90
2023/05/10 09:45:50;;;;;;;4.20;2.20;;;;;;;23.05;40.19;100516.34;41434727;28;20043;-87
2023/05/10 10:05:51;;;;;;;4.78;2.28;;;;;;;23.07;39.76;100501.19;41427356;28;20054;-86
2023/05/10 10:25:55;;;;;;;2.28;2.08;;;;;;;23.05;38.07;100474.09;41410267;28;20387;-85
2023/05/10 10:46:20;;;;;;;3.58;2.03;;;;;;;23.12;39.88;100473.44;41399557;28;20509;-80
2023/05/10 11:06:33;;;;;;;6.20;1.85;;;;;;;23.25;40.96;100438.09;41400498;28;20064;-81
2023/05/10 11:26:35;;;;;;;2.35;1.80;;;;;;;23.38;41.74;100425.50;41399007;28;20105;-80
2023/05/10 11:46:37;;;;;;;2.00;1.80;;;;;;;23.40;42.20;100412.13;41430733;28;20046;-80
2023/05/10 12:06:40;;;;;;;1.88;1.60;;;;;;;23.38;42.39;100411.47;41429772;28;20125;-80
2023/05/10 12:26:42;;;;;;;1.55;1.45;;;;;;;23.38;42.29;100411.47;41407012;28;20048;-81
2023/05/10 12:46:48;;;;;;;3.65;1.70;;;;;;;23.35;42.26;100388.75;41436303;28;20061;-80
2023/05/10 13:06:49;;;;;;;1.83;1.50;;;;;;;23.41;42.53;100356.53;41427078;28;20160;-76
2023/05/10 13:26:49;;;;;;;3.72;1.48;;;;;;;23.53;42.02;100328.16;41485432;28;20042;-81
2023/05/10 13:46:53;;;;;;;1.67;1.23;;;;;;;23.69;42.41;100316.25;41464384;28;20049;-81
2023/05/10 14:06:53;;;;;;;1.73;1.33;;;;;;;23.79;42.57;100302.06;41396527;28;20057;-76
2023/05/10 14:26:54;;;;;;;4.97;1.50;;;;;;;24.01;42.48;100283.44;41355032;28;20050;-76
2023/05/10 14:46:55;;;;;;;4.28;1.40;;;;;;;24.13;42.04;100285.81;41353696;28;20096;-76
2023/05/10 15:06:58;;;;;;;1.73;1.38;;;;;;;24.00;42.41;100293.19;41385217;28;20037;-83
2023/05/10 15:26:59;;;;;;;1.95;1.23;;;;;;;24.02;42.10;100285.94;41382230;28;20081;-81
2023/05/10 15:47:02;;;;;;;2.25;1.33;;;;;;;24.03;41.83;100270.91;41414783;28;20096;-83
2023/05/10 16:07:04;;;;;;;3.40;1.20;;;;;;;23.89;41.92;100274.78;41444472;28;20065;-80
2023/05/10 16:27:05;;;;;;;2.60;1.08;;;;;;;23.67;35.34;100268.81;41458757;28;20069;-85
2023/05/10 16:47:07;;;;;;;3.88;1.42;;;;;;;23.41;34.51;100285.19;41442145;28;20038;-78
2023/05/10 17:07:14;;;;;;;2.58;1.50;;;;;;;23.26;34.70;100302.38;41404873;28;20042;-80
2023/05/10 17:27:15;;;;;;;5.85;1.70;;;;;;;23.12;34.01;100306.19;41385479;28;20053;-80
2023/05/10 17:47:17;;;;;;;4.18;1.70;;;;;;;22.83;33.70;100315.66;41465704;28;20041;-85
2023/05/10 18:07:17;;;;;;;6.60;1.50;;;;;;;22.73;33.07;100330.63;41478378;28;20057;-82
2023/05/10 18:27:20;;;;;;;3.25;1.60;;;;;;;22.57;33.99;100346.06;41401592;28;20366;-80
2023/05/10 18:47:21;;;;;;;5.10;1.77;;;;;;;22.48;33.76;100361.72;41411055;28;20049;-79
2023/05/10 19:07:22;;;;;;;2.72;1.50;;;;;;;22.69;37.35;100372.28;41460841;28;20076;-80
2023/05/10 19:27:23;;;;;;;3.85;1.85;;;;;;;22.75;37.82;100383.28;41440338;28;20050;-79
2023/05/10 19:47:29;;;;;;;4.47;1.60;;;;;;;22.77;38.56;100374.28;41399027;28;20054;-85
2023/05/10 20:07:30;;;;;;;2.78;1.50;;;;;;;22.82;39.01;100374.72;41404330;28;20025;-89
2023/05/10 20:27:30;;;;;;;2.80;1.38;;;;;;;22.81;39.84;100375.69;41437886;28;21106;-87
2023/05/10 20:47:31;;;;;;;2.72;1.48;;;;;;;22.84;39.86;100385.97;41429335;28;20073;-88
2023/05/10 21:07:32;;;;;;;1.90;1.52;;;;;;;22.88;41.03;100376.00;41408167;28;20049;-89
2023/05/10 21:27:34;;;;;;;2.15;1.30;;;;;;;22.89;41.24;100377.69;41412842;28;20371;-85
2023/05/10 21:47:36;;;;;;;1.80;1.30;;;;;;;22.89;41.15;100382.97;41370689;28;20064;-84
2023/05/10 22:07:36;;;;;;;2.47;1.65;;;;;;;22.88;41.57;100383.09;41374668;28;20077;-85
2023/05/10 22:27:37;;;;;;;2.28;1.30;;;;;;;22.86;41.66;100388.47;41380855;28;20045;-83
2023/05/10 22:47:38;;;;;;;1.20;1.10;;;;;;;22.82;41.67;100395.81;41380476;28;20061;-83
2023/05/10 23:07:38;;;;;;;1.38;1.27;;;;;;;22.80;41.80;100400.41;41371557;28;20050;-86
2023/05/10 23:27:39;;;;;;;2.33;1.33;;;;;;;22.79;42.04;100392.59;41380574;28;20041;-84
2023/05/10 23:47:40;;;;;;;2.13;1.30;;;;;;;22.73;41.83;100412.47;41391720;28;20084;-85
